Аэропорт: Игнатьево. Благовещенск

ICAO: UHBB

METAR:
2018/11/19 10:00
UHBB 191000Z 24001MPS CAVOK M14/M21 Q1018 R36/090060 NOSIG RMK QFE746/0995
METAR:
2018/11/19 09:00
TAF UHBB 190750Z 1909/2009 29003MPS CAVOK 
      BECMG 1913/1915 35003MPS= TAF UHSS 190800Z 1909/2015 33003MPS 9999 BKN030CB